Time;durP1;ratioP1;P1;durP2;ratioP2;P2;SDS_P1;SDS_P2;PMS_P1;PMS_P2;Temp;Humidity;BMP_temperature;BMP_pressure;BME280_temperature;BME280_humidity;BME280_pressure;Samples;Min_cycle;Max_cycle;Signal;HPM_P1;HPM_P2
2023/03/20 00:01:48;;;;;;;9.80;6.72;;;;;;;10.89;76.05;102019.56;4987200;28;20169;-91
2023/03/20 00:04:15;;;;;;;8.38;6.15;;;;;;;10.65;75.84;101974.28;5004296;28;20068;-91
2023/03/20 00:06:43;;;;;;;8.85;5.88;;;;;;;10.90;76.13;102015.25;4998601;28;20030;-90
2023/03/20 00:09:13;;;;;;;9.27;6.22;;;;;;;10.89;75.94;102013.44;4998890;28;20567;-91
2023/03/20 00:11:54;;;;;;;10.02;6.47;;;;;;;10.91;76.19;102009.22;4984673;28;20117;-92
2023/03/20 00:14:25;;;;;;;8.52;5.80;;;;;;;10.82;75.85;101991.19;4984553;28;20510;-91
2023/03/20 00:16:53;;;;;;;10.25;6.30;;;;;;;10.82;75.74;101990.28;5009424;28;20022;-90
2023/03/20 00:19:23;;;;;;;9.93;6.38;;;;;;;10.90;75.73;102005.72;4995962;28;20022;-90
2023/03/20 00:21:49;;;;;;;10.05;6.30;;;;;;;10.75;76.03;101983.69;5011131;28;20411;-91
2023/03/20 00:24:15;;;;;;;8.73;6.15;;;;;;;10.84;75.75;102002.66;4982540;28;20455;-91
2023/03/20 00:26:43;;;;;;;8.65;6.22;;;;;;;10.88;76.24;102003.75;4986315;28;20031;-90
2023/03/20 00:29:17;;;;;;;10.18;6.40;;;;;;;10.71;76.24;101966.91;5001113;28;20438;-89
2023/03/20 00:31:43;;;;;;;8.35;5.75;;;;;;;10.89;75.92;101990.81;4985949;28;20040;-90
2023/03/20 00:34:18;;;;;;;9.63;6.07;;;;;;;10.71;76.13;101961.66;4995665;28;20022;-90
2023/03/20 00:36:46;;;;;;;10.35;6.03;;;;;;;10.85;75.98;101991.38;5003270;28;20018;-90
2023/03/20 00:39:14;;;;;;;9.32;5.72;;;;;;;10.76;76.23;101962.91;4999234;28;20019;-90
2023/03/20 00:41:53;;;;;;;8.32;6.20;;;;;;;10.78;75.88;101963.00;4989082;28;20050;-90
2023/03/20 00:44:37;;;;;;;9.05;6.22;;;;;;;10.89;76.44;101976.84;4976688;28;20131;-91
2023/03/20 00:47:14;;;;;;;8.82;5.85;;;;;;;10.68;76.12;101950.97;4994041;28;20423;-91
2023/03/20 00:49:49;;;;;;;8.98;5.90;;;;;;;10.85;76.06;101974.81;5004457;28;20022;-89
2023/03/20 00:52:18;;;;;;;8.50;5.78;;;;;;;10.84;76.13;101975.59;4995524;28;20104;-91
2023/03/20 00:54:43;;;;;;;9.07;6.20;;;;;;;10.45;75.92;101902.28;4978003;28;20107;-92
2023/03/20 01:00:37;;;;;;;10.20;5.80;;;;;;;10.68;76.14;101950.06;5018626;28;20037;-91
2023/03/20 01:03:28;;;;;;;9.55;5.55;;;;;;;10.87;76.32;101976.72;5008831;28;20040;-90
2023/03/20 01:06:05;;;;;;;9.32;6.15;;;;;;;10.58;76.25;101928.53;5004103;28;20042;-91
2023/03/20 01:09:04;;;;;;;;;;;;;;;10.88;76.35;101980.25;5011804;28;20033;-91
2023/03/20 01:11:43;;;;;;;8.90;6.18;;;;;;;10.69;76.13;101941.44;4995150;28;19917;-90
2023/03/20 01:14:20;;;;;;;8.55;5.72;;;;;;;10.83;76.42;101976.41;5021399;28;20037;-91
2023/03/20 01:16:59;;;;;;;9.40;6.10;;;;;;;10.75;76.21;101953.25;4968790;28;20050;-91
2023/03/20 01:19:24;;;;;;;10.13;6.22;;;;;;;10.49;76.33;101911.28;5011027;28;20089;-92
2023/03/20 01:22:24;;;;;;;9.75;6.32;;;;;;;10.84;76.02;101970.38;4998481;28;20029;-92
2023/03/20 01:25:04;;;;;;;8.90;5.75;;;;;;;10.82;76.20;101967.66;4983935;28;20037;-92
2023/03/20 01:27:33;;;;;;;9.77;6.22;;;;;;;10.63;76.33;101930.56;4977882;28;20026;-92
2023/03/20 01:30:19;;;;;;;10.57;6.60;;;;;;;10.82;76.04;101964.16;4978205;28;20030;-91
2023/03/20 01:32:47;;;;;;;8.80;5.70;;;;;;;10.77;76.07;101950.72;4993115;28;20033;-91
2023/03/20 01:35:17;;;;;;;8.18;5.72;;;;;;;10.81;76.28;101947.53;5005007;28;20171;-92
2023/03/20 01:37:44;;;;;;;8.85;5.68;;;;;;;10.77;76.14;101948.13;4984727;28;20099;-92
2023/03/20 01:40:18;;;;;;;8.93;5.68;;;;;;;10.64;76.13;101933.25;4978439;28;20038;-91
2023/03/20 01:42:46;;;;;;;9.48;6.20;;;;;;;10.83;76.17;101960.72;5003116;28;20474;-92
2023/03/20 01:45:20;;;;;;;7.55;5.57;;;;;;;10.69;76.08;101930.97;4995128;28;20029;-91
2023/03/20 01:47:57;;;;;;;8.38;5.63;;;;;;;10.68;76.22;101937.91;4984808;28;20030;-91
2023/03/20 01:50:32;;;;;;;8.35;5.65;;;;;;;10.79;76.00;101952.69;4994007;28;20038;-90
2023/03/20 01:53:24;;;;;;;9.85;6.20;;;;;;;10.68;75.93;101943.13;4986071;28;20040;-91
2023/03/20 01:55:56;;;;;;;11.48;5.65;;;;;;;10.70;76.10;101944.16;4989733;28;20038;-91
2023/03/20 01:58:35;;;;;;;9.25;5.80;;;;;;;10.67;76.39;101935.19;4978031;28;20033;-89
2023/03/20 02:01:12;;;;;;;9.40;6.38;;;;;;;10.65;76.15;101927.25;4992903;28;20096;-89
2023/03/20 02:03:42;;;;;;;8.45;5.68;;;;;;;10.73;76.07;101944.41;4992620;28;20034;-92
2023/03/20 02:06:13;;;;;;;7.45;5.72;;;;;;;10.53;75.99;101900.25;4986738;28;20107;-91
2023/03/20 02:08:51;;;;;;;8.25;5.60;;;;;;;10.64;76.29;101922.81;5022466;28;20025;-92
2023/03/20 02:11:25;;;;;;;6.68;5.20;;;;;;;10.85;76.08;101954.81;5000690;28;20093;-92
2023/03/20 02:13:54;;;;;;;8.00;5.57;;;;;;;10.74;76.17;101933.13;4974380;28;20034;-91
2023/03/20 02:16:27;;;;;;;8.68;6.00;;;;;;;10.86;76.38;101951.41;5009685;28;20025;-91
2023/03/20 02:18:57;;;;;;;7.15;5.18;;;;;;;10.79;76.19;101950.06;5005222;28;20037;-91
2023/03/20 02:21:59;;;;;;;8.35;5.80;;;;;;;10.82;75.87;101957.22;4978935;28;20508;-90
2023/03/20 02:25:04;;;;;;;7.72;5.65;;;;;;;10.84;75.98;101947.78;5013340;28;20034;-90
2023/03/20 02:27:59;;;;;;;8.32;5.68;;;;;;;10.83;76.00;101948.56;4993802;28;20419;-91
2023/03/20 02:30:49;;;;;;;8.70;5.55;;;;;;;10.81;76.41;101947.53;5027540;28;20029;-91
2023/03/20 02:33:49;;;;;;;8.75;5.97;;;;;;;10.80;76.25;101944.03;4998445;28;20853;-91
2023/03/20 02:36:40;;;;;;;9.13;5.88;;;;;;;10.78;76.10;101937.78;5001232;28;20057;-91
2023/03/20 02:39:41;;;;;;;7.15;5.18;;;;;;;10.80;76.17;101925.75;5008599;28;20048;-91
2023/03/20 02:42:45;;;;;;;8.57;5.65;;;;;;;10.81;76.33;101924.03;5017279;28;20397;-90
2023/03/20 02:45:48;;;;;;;8.70;5.60;;;;;;;10.82;76.26;101912.78;5000579;28;20041;-90
2023/03/20 02:48:52;;;;;;;7.47;5.18;;;;;;;10.82;75.94;101920.63;4968158;28;20144;-90
2023/03/20 02:51:32;;;;;;;8.45;5.68;;;;;;;10.79;76.20;101920.41;5000506;28;20037;-90
2023/03/20 02:54:05;;;;;;;8.30;5.93;;;;;;;10.77;76.49;101917.69;5000083;28;20042;-91
2023/03/20 02:56:51;;;;;;;10.23;6.20;;;;;;;10.77;76.07;101917.69;5010106;28;20036;-90
2023/03/20 02:59:36;;;;;;;8.88;5.57;;;;;;;10.79;76.28;101918.72;4997753;28;20053;-91
2023/03/20 03:02:15;;;;;;;7.22;5.50;;;;;;;10.80;76.05;101919.63;4996002;28;20045;-91
2023/03/20 03:04:49;;;;;;;8.68;5.97;;;;;;;10.74;75.95;101911.34;4979088;28;20029;-91
2023/03/20 03:07:20;;;;;;;9.52;6.05;;;;;;;10.77;76.38;101922.91;4990151;28;20022;-91
2023/03/20 03:09:55;;;;;;;8.52;5.53;;;;;;;10.62;75.85;101897.38;4997601;28;20031;-90
2023/03/20 03:12:23;;;;;;;8.32;5.82;;;;;;;10.58;75.98;101885.81;4993462;28;20116;-90
2023/03/20 03:14:54;;;;;;;10.00;6.35;;;;;;;10.73;76.25;101912.13;5000620;28;20559;-91
2023/03/20 03:17:24;;;;;;;9.32;5.85;;;;;;;10.59;76.29;101892.84;5003476;28;20025;-91
2023/03/20 03:19:54;;;;;;;8.77;5.43;;;;;;;10.58;76.28;101891.03;4981070;28;20496;-91
2023/03/20 03:22:20;;;;;;;8.93;5.63;;;;;;;10.42;76.24;101859.41;4974893;28;20026;-90
2023/03/20 03:24:49;;;;;;;9.38;5.90;;;;;;;10.79;76.34;101925.63;5002979;28;20415;-89
2023/03/20 03:27:39;;;;;;;10.50;6.25;;;;;;;10.77;76.40;101920.31;5001455;28;20025;-90
2023/03/20 03:30:18;;;;;;;9.32;5.90;;;;;;;10.76;76.41;101907.13;4999477;28;20466;-89
2023/03/20 03:33:00;;;;;;;8.27;5.68;;;;;;;10.44;76.31;101850.88;4985909;28;20030;-89
2023/03/20 03:35:26;;;;;;;8.45;5.65;;;;;;;10.60;76.08;101881.59;5008062;28;20438;-89
2023/03/20 03:38:17;;;;;;;7.43;5.68;;;;;;;10.77;75.86;101899.41;4973157;28;20494;-90
2023/03/20 03:40:44;;;;;;;7.82;5.40;;;;;;;10.76;76.50;101896.69;4969175;28;20108;-91
2023/03/20 03:43:16;;;;;;;;;;;;;;;10.77;76.29;101899.41;4989394;28;20061;-90
2023/03/20 03:45:54;;;;;;;8.98;5.63;;;;;;;10.62;76.02;101877.38;5006268;28;20283;-91
2023/03/20 03:48:24;;;;;;;8.98;5.70;;;;;;;10.59;75.94;101870.25;4988348;28;20101;-90
2023/03/20 03:50:53;;;;;;;8.30;5.70;;;;;;;10.66;75.97;101888.97;4983865;28;20083;-90
2023/03/20 03:53:40;;;;;;;9.68;5.65;;;;;;;10.68;76.22;101895.22;4979501;28;20053;-92
2023/03/20 03:56:10;;;;;;;9.43;5.63;;;;;;;10.55;76.43;101865.59;4992213;28;20106;-90
2023/03/20 03:58:48;;;;;;;7.70;5.57;;;;;;;10.67;76.40;101889.09;4997045;28;20034;-90
2023/03/20 04:01:16;;;;;;;7.38;5.28;;;;;;;10.75;76.34;101907.91;4986489;28;20022;-89
2023/03/20 04:03:54;;;;;;;7.07;5.13;;;;;;;10.73;76.21;101910.44;5011385;28;20097;-89
2023/03/20 04:06:19;;;;;;;9.10;5.82;;;;;;;10.61;76.49;101896.50;4998795;28;20491;-91
2023/03/20 04:08:48;;;;;;;7.53;5.40;;;;;;;10.57;76.08;101889.22;4988072;28;20033;-91
2023/03/20 04:11:20;;;;;;;8.82;5.68;;;;;;;10.68;76.70;101923.94;4979088;28;20061;-91
2023/03/20 04:14:11;;;;;;;8.48;5.97;;;;;;;10.75;76.41;101924.53;4989519;28;20040;-91
2023/03/20 04:16:45;;;;;;;8.43;5.82;;;;;;;10.72;76.49;101924.28;4997119;28;20029;-91
2023/03/20 04:19:13;;;;;;;7.55;5.25;;;;;;;10.71;76.13;101921.53;4994268;28;20065;-91
2023/03/20 04:21:41;;;;;;;8.30;5.43;;;;;;;10.62;76.42;101913.06;4982078;28;20120;-91
2023/03/20 04:24:08;;;;;;;8.35;5.88;;;;;;;10.72;76.12;101919.06;5011132;28;20030;-89
2023/03/20 04:26:34;;;;;;;8.30;5.80;;;;;;;10.60;76.03;101894.66;4995397;28;20491;-90
2023/03/20 04:29:02;;;;;;;7.22;5.43;;;;;;;10.72;76.11;101915.53;4979141;28;20026;-89
2023/03/20 04:31:34;;;;;;;7.00;5.50;;;;;;;10.51;76.32;101878.34;4975951;28;20097;-89
2023/03/20 04:34:00;;;;;;;8.45;5.28;;;;;;;10.54;76.38;101883.75;4989252;28;20480;-88
2023/03/20 04:36:27;;;;;;;8.60;5.47;;;;;;;10.48;76.14;101870.28;4996427;28;20033;-88
2023/03/20 04:38:53;;;;;;;8.38;5.35;;;;;;;10.67;76.44;101920.44;4996106;28;20030;-88
2023/03/20 04:41:19;;;;;;;8.88;5.78;;;;;;;10.30;76.31;101860.31;4983219;28;20076;-89
2023/03/20 04:43:45;;;;;;;7.75;5.22;;;;;;;10.31;75.98;101861.25;4982322;28;20175;-90
2023/03/20 04:46:13;;;;;;;8.15;5.38;;;;;;;10.56;76.45;101900.44;4995037;28;20487;-88
2023/03/20 04:48:38;;;;;;;8.30;5.85;;;;;;;10.61;76.39;101901.72;5005757;28;20523;-88
2023/03/20 04:51:04;;;;;;;11.70;6.05;;;;;;;10.62;76.40;101921.78;4992768;28;20038;-88
2023/03/20 04:53:30;;;;;;;8.73;6.15;;;;;;;10.71;76.14;101929.38;5005735;28;20037;-89
2023/03/20 04:55:56;;;;;;;7.93;5.38;;;;;;;10.58;75.87;101901.47;5002467;28;20034;-89
2023/03/20 04:58:23;;;;;;;8.77;6.20;;;;;;;10.50;76.03;101882.66;4987927;28;20696;-89
2023/03/20 05:00:49;;;;;;;8.70;5.38;;;;;;;10.56;76.06;101892.63;5006005;28;20034;-89
2023/03/20 05:03:16;;;;;;;7.82;5.78;;;;;;;10.58;76.22;101897.19;4994643;28;20021;-89
2023/03/20 05:05:42;;;;;;;7.82;5.05;;;;;;;10.66;76.35;101916.00;4977333;28;20042;-88
2023/03/20 05:08:09;;;;;;;7.55;5.65;;;;;;;10.51;76.11;101881.84;4990793;28;20022;-88
2023/03/20 05:10:35;;;;;;;6.93;5.15;;;;;;;10.47;76.12;101878.91;4981386;28;20499;-89
2023/03/20 05:13:01;;;;;;;8.05;5.30;;;;;;;10.57;76.18;101897.97;4988050;28;20476;-88
2023/03/20 05:15:27;;;;;;;8.00;5.15;;;;;;;10.60;76.26;101897.25;5000780;28;20033;-88
2023/03/20 05:17:54;;;;;;;7.55;5.13;;;;;;;10.49;76.17;101874.69;4978084;28;20422;-89
2023/03/20 05:20:20;;;;;;;8.55;5.60;;;;;;;10.58;76.09;101896.25;4994571;28;20109;-88
2023/03/20 05:22:50;;;;;;;7.47;5.32;;;;;;;10.55;76.13;101902.16;4994331;28;20109;-90
2023/03/20 05:25:16;;;;;;;8.27;5.60;;;;;;;10.62;75.97;101905.22;4994276;28;20032;-91
2023/03/20 05:27:43;;;;;;;6.82;4.97;;;;;;;10.70;76.29;101917.13;4978086;28;20029;-89
2023/03/20 05:30:10;;;;;;;8.55;5.22;;;;;;;10.54;76.39;101891.59;4993617;28;20062;-89
2023/03/20 05:32:35;;;;;;;7.68;5.45;;;;;;;10.60;76.28;101912.94;4994105;28;20028;-89
2023/03/20 05:35:04;;;;;;;7.95;5.18;;;;;;;10.70;76.21;101917.13;4994674;28;20521;-89
2023/03/20 05:37:30;;;;;;;8.43;5.07;;;;;;;10.38;76.24;101866.09;4991120;28;20089;-89
2023/03/20 05:39:57;;;;;;;7.30;5.10;;;;;;;10.53;76.20;101901.16;4996125;28;20495;-89
2023/03/20 05:42:22;;;;;;;9.63;5.38;;;;;;;10.50;76.22;101900.94;4990391;28;20401;-90
2023/03/20 05:44:49;;;;;;;7.15;5.18;;;;;;;10.32;76.40;101873.47;4974849;28;20029;-90
2023/03/20 05:47:18;;;;;;;9.32;5.20;;;;;;;10.34;76.58;101858.84;5005979;28;20032;-87
2023/03/20 05:49:43;;;;;;;7.75;5.32;;;;;;;10.35;76.58;101858.97;4970245;28;20100;-89
2023/03/20 05:52:10;;;;;;;7.55;5.00;;;;;;;10.52;76.31;101894.13;4975035;28;20471;-92
2023/03/20 05:54:37;;;;;;;7.35;5.15;;;;;;;10.67;76.52;101924.72;4958874;28;20042;-91
2023/03/20 05:57:02;;;;;;;7.50;5.40;;;;;;;10.45;76.12;101875.28;4991481;28;20053;-88
2023/03/20 05:59:29;;;;;;;7.03;5.40;;;;;;;10.42;76.45;101881.19;4979887;28;20476;-91
2023/03/20 06:01:54;;;;;;;7.38;5.28;;;;;;;10.25;76.06;101846.00;4976589;28;20038;-90
2023/03/20 06:04:21;;;;;;;7.05;4.95;;;;;;;10.56;76.07;101897.84;4984676;28;20109;-90
2023/03/20 06:06:51;;;;;;;8.30;5.05;;;;;;;10.44;76.15;101891.75;5002707;28;20038;-92
2023/03/20 06:09:16;;;;;;;7.55;5.10;;;;;;;10.63;76.52;101925.34;4990832;28;20026;-92
2023/03/20 06:11:52;;;;;;;7.50;5.20;;;;;;;10.54;76.13;101916.03;4978925;28;20041;-92
2023/03/20 06:14:19;;;;;;;9.32;5.57;;;;;;;10.60;76.58;101933.84;4997907;28;20033;-91
2023/03/20 06:16:45;;;;;;;7.18;5.10;;;;;;;10.56;76.63;101913.50;4996547;28;20770;-90
2023/03/20 06:19:15;;;;;;;7.15;5.30;;;;;;;10.43;76.34;101903.88;4979002;28;20117;-90
2023/03/20 06:21:48;;;;;;;6.75;4.63;;;;;;;10.65;76.37;101940.31;4979587;28;20042;-91
2023/03/20 06:24:26;;;;;;;6.88;4.75;;;;;;;10.59;76.44;101929.44;4969759;28;20069;-91
2023/03/20 06:26:53;;;;;;;7.30;4.93;;;;;;;10.45;76.54;101909.22;4974323;28;20033;-91
2023/03/20 06:29:22;;;;;;;6.93;4.90;;;;;;;10.63;76.75;101938.41;4989007;28;20030;-93
2023/03/20 06:31:49;;;;;;;8.73;5.18;;;;;;;10.46;76.62;101898.91;4981031;28;20034;-92
2023/03/20 06:34:18;;;;;;;6.88;4.88;;;;;;;10.45;76.77;101919.66;4988583;28;20519;-89
2023/03/20 06:36:47;;;;;;;7.32;4.57;;;;;;;10.65;76.47;101945.53;4975922;28;20025;-92
2023/03/20 06:39:24;;;;;;;7.13;4.85;;;;;;;10.51;76.41;101909.69;4984430;28;20487;-92
2023/03/20 06:41:49;;;;;;;7.35;4.95;;;;;;;10.48;76.40;101912.97;4974009;28;20054;-92
2023/03/20 06:44:20;;;;;;;7.28;4.88;;;;;;;10.47;76.26;101900.69;4983516;28;20103;-90
2023/03/20 06:46:56;;;;;;;7.57;5.20;;;;;;;10.59;76.32;101932.94;4975963;28;20038;-92
2023/03/20 06:49:23;;;;;;;9.20;5.05;;;;;;;10.64;76.03;101932.38;5009004;28;20602;-91
2023/03/20 06:52:12;;;;;;;7.90;5.35;;;;;;;10.61;76.64;101938.28;4995884;28;20065;-91
2023/03/20 06:54:49;;;;;;;7.60;5.38;;;;;;;10.49;76.46;101914.78;4983049;28;20034;-90
2023/03/20 06:57:21;;;;;;;7.88;5.47;;;;;;;10.67;76.53;101937.78;4986784;28;20040;-92
2023/03/20 06:59:47;;;;;;;8.05;5.45;;;;;;;10.15;76.48;101859.16;4995511;28;20029;-91
2023/03/20 07:02:21;;;;;;;9.00;5.90;;;;;;;10.51;76.49;101913.19;5004152;28;20487;-91
2023/03/20 07:04:47;;;;;;;8.27;5.50;;;;;;;10.46;76.42;101916.28;4983964;28;20029;-90
2023/03/20 07:07:20;;;;;;;10.32;5.63;;;;;;;10.47;76.65;101913.75;5006726;28;20038;-90
2023/03/20 07:09:47;;;;;;;9.13;5.75;;;;;;;10.48;76.33;101907.75;5007386;28;20029;-90
2023/03/20 07:12:14;;;;;;;8.00;5.68;;;;;;;10.54;76.47;101926.50;4985116;28;20034;-90
2023/03/20 07:14:41;;;;;;;8.18;5.70;;;;;;;10.64;76.32;101934.97;4981316;28;20118;-90
2023/03/20 07:17:08;;;;;;;9.00;5.50;;;;;;;10.58;76.87;101931.13;5006075;28;20116;-89
2023/03/20 07:19:40;;;;;;;11.35;5.80;;;;;;;10.41;76.66;101899.34;4974302;28;20026;-91
2023/03/20 07:22:14;;;;;;;8.02;5.70;;;;;;;10.67;76.23;101927.34;4970864;28;20470;-90
2023/03/20 07:24:40;;;;;;;7.80;5.63;;;;;;;10.58;76.42;101907.63;4997097;28;20025;-91
2023/03/20 07:27:07;;;;;;;7.30;5.72;;;;;;;10.45;76.58;101888.34;4984621;28;20030;-89
2023/03/20 07:29:44;;;;;;;8.25;5.43;;;;;;;10.35;76.64;101873.69;4986782;28;20034;-91
2023/03/20 07:32:13;;;;;;;8.85;6.05;;;;;;;10.63;76.20;101927.94;4980991;28;20419;-92
2023/03/20 07:34:38;;;;;;;9.88;6.05;;;;;;;10.64;76.19;101924.53;4994234;28;20029;-94
2023/03/20 07:37:12;;;;;;;10.18;6.32;;;;;;;10.46;76.63;101901.50;5004099;28;20026;-94
2023/03/20 07:39:39;;;;;;;9.13;6.32;;;;;;;10.48;76.15;101894.69;4968709;28;20026;-93
2023/03/20 07:42:05;;;;;;;8.15;5.80;;;;;;;10.65;76.24;101932.47;4997312;28;20080;-92
2023/03/20 07:44:31;;;;;;;9.13;6.05;;;;;;;10.48;76.51;101899.03;4990381;28;20034;-91
2023/03/20 07:46:58;;;;;;;8.30;5.95;;;;;;;10.67;76.43;101930.91;4967938;28;20396;-91
2023/03/20 07:49:36;;;;;;;8.35;5.70;;;;;;;10.56;76.14;101908.28;5002957;28;20402;-92
2023/03/20 07:52:52;;;;;;;8.38;5.93;;;;;;;10.71;76.48;101934.59;4980668;28;20038;-92
2023/03/20 07:55:20;;;;;;;10.48;6.10;;;;;;;10.70;76.45;101935.44;4984871;28;20089;-92
2023/03/20 07:57:48;;;;;;;10.10;6.28;;;;;;;10.47;76.45;101897.19;4990954;28;20062;-92
2023/03/20 08:00:15;;;;;;;9.27;5.75;;;;;;;10.69;76.17;101934.53;4978552;28;20041;-91
2023/03/20 08:02:46;;;;;;;9.70;6.25;;;;;;;10.46;76.37;101900.63;4994580;28;20108;-92
2023/03/20 08:05:28;;;;;;;9.80;6.10;;;;;;;10.60;76.47;101907.72;4985184;28;20022;-91
2023/03/20 08:08:07;;;;;;;9.27;6.13;;;;;;;10.68;76.28;101937.00;4993286;28;20034;-91
2023/03/20 08:10:34;;;;;;;8.90;6.13;;;;;;;10.62;76.03;101913.97;4988772;28;20031;-90
2023/03/20 08:13:05;;;;;;;11.18;6.57;;;;;;;10.66;76.56;101926.44;4989426;28;20022;-90
2023/03/20 08:15:34;;;;;;;10.25;6.50;;;;;;;10.58;76.47;101917.16;4989744;28;20491;-93
2023/03/20 08:18:21;;;;;;;10.25;6.22;;;;;;;10.73;76.23;101936.56;4994365;28;20028;-92
2023/03/20 08:20:57;;;;;;;8.88;6.30;;;;;;;10.57;76.15;101912.72;4989307;28;20045;-93
2023/03/20 08:23:48;;;;;;;9.10;6.68;;;;;;;10.68;76.45;101935.31;4996648;28;20030;-92
2023/03/20 08:26:45;;;;;;;8.65;5.90;;;;;;;10.74;76.32;101930.53;5011777;28;20055;-91
2023/03/20 08:29:19;;;;;;;9.80;6.00;;;;;;;10.74;76.29;101938.38;4983651;28;20030;-92
2023/03/20 08:32:03;;;;;;;10.55;6.30;;;;;;;10.68;76.48;101932.69;4976950;28;20030;-91
2023/03/20 08:34:37;;;;;;;9.50;6.40;;;;;;;10.74;75.99;101940.97;5007639;28;20487;-92
2023/03/20 08:40:55;;;;;;;8.88;6.03;;;;;;;10.76;76.04;101928.94;4994176;28;20069;-93
2023/03/20 08:43:23;;;;;;;9.73;6.28;;;;;;;10.72;76.38;101932.13;5004475;28;20073;-94
2023/03/20 08:45:51;;;;;;;9.07;6.07;;;;;;;10.61;76.26;101909.53;4981301;28;20136;-93
2023/03/20 08:48:29;;;;;;;9.48;6.50;;;;;;;10.70;76.33;101928.47;4979969;28;20030;-92
2023/03/20 08:51:07;;;;;;;9.40;6.50;;;;;;;10.72;76.16;101932.13;4980063;28;20052;-93
2023/03/20 08:54:01;;;;;;;10.27;6.35;;;;;;;10.70;76.48;101931.09;5009630;28;20026;-92
2023/03/20 08:56:33;;;;;;;9.38;6.22;;;;;;;10.71;76.24;101927.69;4989470;28;20033;-88
2023/03/20 08:59:04;;;;;;;9.27;6.22;;;;;;;10.75;76.05;101932.34;4993704;28;20038;-92
2023/03/20 09:01:37;;;;;;;9.27;6.35;;;;;;;10.66;76.20;101917.72;4990947;28;20491;-91
2023/03/20 09:04:13;;;;;;;9.60;6.63;;;;;;;10.64;76.45;101906.25;5004103;28;20041;-93
2023/03/20 09:07:22;;;;;;;10.02;6.72;;;;;;;10.74;76.38;101924.41;5009803;28;20100;-92
2023/03/20 09:10:22;;;;;;;9.75;6.15;;;;;;;10.75;76.34;101919.28;4995703;28;20491;-92
2023/03/20 09:12:55;;;;;;;9.63;6.43;;;;;;;10.68;76.16;101890.00;4979358;28;20029;-92
2023/03/20 09:15:25;;;;;;;8.85;5.97;;;;;;;10.55;76.94;101867.31;5002905;28;20077;-92
2023/03/20 09:18:05;;;;;;;9.63;6.13;;;;;;;10.72;76.67;101902.47;4976531;28;20495;-92
2023/03/20 09:20:42;;;;;;;8.73;6.18;;;;;;;10.67;76.34;101870.81;4988803;28;20034;-92
2023/03/20 09:23:07;;;;;;;9.00;5.70;;;;;;;10.76;76.72;101908.03;4983634;28;20034;-91
2023/03/20 09:26:01;;;;;;;9.15;6.03;;;;;;;10.76;76.60;101899.28;4977989;28;20571;-90
2023/03/20 09:28:36;;;;;;;9.60;6.32;;;;;;;10.74;77.00;101896.56;4987657;28;20092;-91
2023/03/20 09:31:15;;;;;;;9.35;5.63;;;;;;;10.62;76.40;101855.59;4995394;28;20033;-92
2023/03/20 09:33:42;;;;;;;8.95;6.53;;;;;;;10.77;76.36;101888.03;4977011;28;20029;-91
2023/03/20 09:36:10;;;;;;;9.27;5.82;;;;;;;10.73;76.34;101876.47;4979277;28;20030;-91
2023/03/20 09:38:41;;;;;;;11.38;7.40;;;;;;;10.88;76.72;101881.88;4997017;28;20072;-96
2023/03/20 09:41:18;;;;;;;18.95;10.05;;;;;;;11.05;76.48;101871.66;4995821;28;20096;-92
2023/03/20 09:44:22;;;;;;;24.00;11.98;;;;;;;11.20;75.04;101867.53;4980741;28;20507;-92
2023/03/20 09:47:27;;;;;;;24.88;11.30;;;;;;;11.03;76.19;101876.81;4992948;28;20034;-90
2023/03/20 09:50:21;;;;;;;21.52;10.73;;;;;;;11.05;77.11;101870.00;4956468;28;20051;-90
2023/03/20 09:53:32;;;;;;;20.52;10.25;;;;;;;11.10;77.05;101873.81;4973242;28;20050;-91
2023/03/20 09:56:04;;;;;;;17.17;10.18;;;;;;;11.04;76.98;101877.72;4982414;28;20026;-93
2023/03/20 09:58:52;;;;;;;20.13;10.63;;;;;;;10.84;76.98;101837.09;4972306;28;20027;-91
2023/03/20 10:01:41;;;;;;;21.58;10.43;;;;;;;11.02;76.84;101874.09;4959210;28;20084;-94
2023/03/20 10:04:24;;;;;;;16.77;9.68;;;;;;;10.86;76.43;101844.28;4975389;28;20088;-94
2023/03/20 10:06:58;;;;;;;18.95;10.02;;;;;;;10.86;76.78;101845.97;4975987;28;20434;-93
2023/03/20 10:09:33;;;;;;;16.75;9.48;;;;;;;10.84;76.55;101850.16;4958736;28;20031;-92
2023/03/20 10:12:36;;;;;;;16.05;9.38;;;;;;;11.00;76.35;101864.41;4964874;28;20040;-92
2023/03/20 10:15:40;;;;;;;16.63;9.43;;;;;;;10.96;76.43;101858.88;4963334;28;20030;-92
2023/03/20 10:18:39;;;;;;;13.07;8.80;;;;;;;10.96;76.30;101851.03;4974406;28;20492;-93
2023/03/20 10:21:48;;;;;;;15.23;8.80;;;;;;;10.97;76.23;101845.91;4988721;28;20555;-92
2023/03/20 10:24:39;;;;;;;13.77;8.45;;;;;;;10.97;76.15;101845.91;4988575;28;20452;-94
2023/03/20 10:27:31;;;;;;;16.52;8.25;;;;;;;10.97;76.51;101838.06;4976582;28;20038;-92
2023/03/20 10:30:28;;;;;;;13.70;8.80;;;;;;;10.93;76.51;101836.03;4964388;28;20034;-91
2023/03/20 10:33:16;;;;;;;14.65;8.25;;;;;;;10.80;76.68;101804.66;4969051;28;20085;-92
2023/03/20 10:36:09;;;;;;;14.73;8.48;;;;;;;10.90;76.54;101832.31;4963994;28;20022;-92
2023/03/20 10:39:17;;;;;;;13.55;8.02;;;;;;;10.93;76.59;101827.31;4958328;28;20043;-93
2023/03/20 10:41:48;;;;;;;12.63;7.80;;;;;;;10.88;76.28;101815.63;4979305;28;20512;-94
2023/03/20 10:44:35;;;;;;;15.82;8.50;;;;;;;10.76;76.44;101784.31;4962540;28;20026;-92
2023/03/20 10:47:22;;;;;;;14.20;8.25;;;;;;;10.83;76.24;101791.78;4963445;28;20034;-92
2023/03/20 10:50:00;;;;;;;13.80;7.90;;;;;;;10.90;76.11;101806.16;4981367;28;20034;-92
2023/03/20 10:52:41;;;;;;;13.20;7.88;;;;;;;10.93;76.52;101809.91;4951696;28;20546;-93
2023/03/20 10:55:12;;;;;;;13.20;8.00;;;;;;;10.72;76.44;101777.06;4962349;28;20033;-92
2023/03/20 10:57:47;;;;;;;12.20;8.07;;;;;;;10.83;76.46;101789.16;4969987;28;20554;-92
2023/03/20 11:00:25;;;;;;;12.90;7.68;;;;;;;10.94;76.47;101806.50;4962755;28;20106;-92
2023/03/20 11:03:24;;;;;;;13.73;7.70;;;;;;;10.94;76.72;101806.50;4967282;28;20067;-91
2023/03/20 11:06:16;;;;;;;14.38;8.20;;;;;;;10.89;76.17;101783.47;4986695;28;20608;-91
2023/03/20 11:08:47;;;;;;;12.48;7.50;;;;;;;10.66;76.60;101742.69;4967354;28;20444;-92
2023/03/20 11:11:21;;;;;;;10.07;6.75;;;;;;;10.80;76.42;101760.22;4981484;28;20047;-92
2023/03/20 11:13:53;;;;;;;15.02;7.97;;;;;;;10.74;76.49;101747.63;4954156;28;20496;-92
2023/03/20 11:16:21;;;;;;;12.57;7.75;;;;;;;11.00;76.51;101783.38;4982275;28;20117;-92
2023/03/20 11:18:51;;;;;;;12.07;7.32;;;;;;;10.79;76.66;101750.56;4978920;28;20102;-91
2023/03/20 11:21:30;;;;;;;12.50;7.75;;;;;;;10.99;76.65;101778.06;4963264;28;20025;-90
2023/03/20 11:24:00;;;;;;;12.88;7.07;;;;;;;10.97;76.65;101771.84;4961747;28;20034;-92
2023/03/20 11:26:35;;;;;;;10.43;7.30;;;;;;;10.96;76.84;101768.31;4959872;28;20484;-91
2023/03/20 11:29:05;;;;;;;12.18;7.63;;;;;;;10.95;76.74;101766.50;4971991;28;20030;-91
2023/03/20 11:31:39;;;;;;;12.25;7.68;;;;;;;11.01;76.77;101768.63;4966285;28;20515;-91
2023/03/20 11:34:13;;;;;;;12.15;7.22;;;;;;;11.02;76.49;101772.16;4976608;28;20085;-91
2023/03/20 11:36:46;;;;;;;11.88;7.03;;;;;;;10.82;76.90;101744.66;4983016;28;20023;-90
2023/03/20 11:39:22;;;;;;;10.18;6.82;;;;;;;10.99;76.45;101760.69;4991443;28;20473;-91
2023/03/20 11:41:51;;;;;;;10.48;6.65;;;;;;;10.85;76.53;101729.19;4969297;28;20046;-92
2023/03/20 11:44:28;;;;;;;12.10;7.10;;;;;;;10.93;76.38;101738.44;4972308;28;20019;-91
2023/03/20 11:47:14;;;;;;;9.30;6.90;;;;;;;11.11;76.13;101764.91;4971305;28;20030;-91
2023/03/20 11:49:59;;;;;;;9.65;6.15;;;;;;;10.97;76.01;101733.53;4965437;28;20113;-91
2023/03/20 11:52:31;;;;;;;11.75;7.22;;;;;;;11.12;75.95;101759.81;4970860;28;20038;-92
2023/03/20 11:55:29;;;;;;;13.10;7.05;;;;;;;11.04;75.83;101745.31;4969691;28;20030;-92
2023/03/20 11:57:59;;;;;;;10.05;6.68;;;;;;;11.14;75.83;101750.34;4978071;28;20192;-92
2023/03/20 12:00:37;;;;;;;10.32;6.90;;;;;;;11.19;75.62;101755.88;4961428;28;20041;-92
2023/03/20 12:06:51;;;;;;;9.95;6.53;;;;;;;11.19;75.67;101753.28;4975837;28;20049;-92
2023/03/20 12:09:40;;;;;;;8.88;6.45;;;;;;;11.18;75.64;101743.63;4968057;28;20035;-92
2023/03/20 12:12:35;;;;;;;10.02;6.65;;;;;;;11.18;75.64;101751.47;4967337;28;20037;-92
2023/03/20 12:15:12;;;;;;;11.32;6.70;;;;;;;11.25;75.54;101751.06;4964188;28;20045;-91